createdAt,value
2022-10-26T00:01:58.718Z,936.3
2022-10-26T00:07:09.380Z,936.5
2022-10-26T00:12:21.506Z,936.3
2022-10-26T00:17:34.616Z,936.2
2022-10-26T00:22:45.902Z,936
2022-10-26T00:27:58.655Z,935.7
2022-10-26T00:33:11.540Z,935.3
2022-10-26T00:43:41.676Z,935.6
2022-10-26T00:48:52.668Z,935.8
2022-10-26T00:59:24.141Z,936.3
2022-10-26T01:04:37.591Z,936.6
2022-10-26T01:09:48.954Z,936.4
2022-10-26T01:15:01.214Z,936.1
2022-10-26T01:20:12.534Z,935.7
2022-10-26T01:30:42.855Z,936
2022-10-26T01:35:54.300Z,936.2
2022-10-26T01:41:07.387Z,935.9
2022-10-26T01:57:06.610Z,935.9
2022-10-26T02:02:18.522Z,935.7
2022-10-26T02:07:28.145Z,936
2022-10-26T02:18:01.677Z,935.7
2022-10-26T02:23:12.633Z,935.2
2022-10-26T02:44:29.081Z,935.4
2022-10-26T02:55:03.580Z,935.6
2022-10-26T03:00:15.873Z,935.5
2022-10-26T03:05:28.959Z,935.8
2022-10-26T03:10:41.995Z,936.6
2022-10-26T03:15:51.528Z,936.6
2022-10-26T03:21:03.694Z,936.5
2022-10-26T03:26:16.098Z,936.3
2022-10-26T03:36:48.719Z,936.9
2022-10-26T03:42:01.131Z,937.3
2022-10-26T03:47:12.468Z,938.5
2022-10-26T03:52:22.644Z,936.9
2022-10-26T03:57:34.702Z,935.8
2022-10-26T04:02:49.310Z,935.7
2022-10-26T04:13:21.613Z,935.5
2022-10-26T04:18:32.213Z,935.7
2022-10-26T04:23:43.197Z,936
2022-10-26T04:28:53.389Z,936.1
2022-10-26T04:34:08.227Z,936.1
2022-10-26T04:44:42.676Z,936.3
2022-10-26T04:49:55.621Z,936.4
2022-10-26T04:55:05.459Z,936.9
2022-10-26T05:00:17.333Z,937.6
2022-10-26T05:05:28.363Z,937.8
2022-10-26T05:10:44.217Z,938.3
2022-10-26T05:15:51.179Z,938.9
2022-10-26T05:21:02.211Z,939.4
2022-10-26T05:36:57.733Z,938.8
2022-10-26T05:47:30.856Z,939.2
2022-10-26T05:58:06.075Z,939.2
2022-10-26T06:03:16.202Z,936.8
2022-10-26T06:08:27.905Z,936.6
2022-10-26T06:13:37.831Z,936.7
2022-10-26T06:24:11.360Z,936.4
2022-10-26T06:34:46.685Z,936.3
2022-10-26T06:45:20.533Z,936
2022-10-26T07:06:39.955Z,935.9
2022-10-26T07:17:10.977Z,935.8
2022-10-26T07:22:24.191Z,936
2022-10-26T07:27:38.395Z,936
2022-10-26T07:32:52.566Z,936.2
2022-10-26T07:53:55.796Z,936.5
2022-10-26T08:04:29.241Z,936.8
2022-10-26T08:09:41.106Z,937.1
2022-10-26T08:25:37.265Z,937.3
2022-10-26T08:30:48.740Z,937
2022-10-26T08:36:01.837Z,937.2
2022-10-26T08:41:12.395Z,937.3
2022-10-26T08:46:24.242Z,938
2022-10-26T08:51:34.354Z,938.6
2022-10-26T08:56:51.340Z,938.1
2022-10-26T09:01:59.170Z,937.5
2022-10-26T09:07:10.243Z,937.8
2022-10-26T09:23:05.894Z,938
2022-10-26T09:28:17.367Z,938.3
2022-10-26T09:33:30.847Z,938.1
2022-10-26T09:38:42.554Z,938.3
2022-10-26T09:43:55.246Z,938.6
2022-10-26T09:49:07.206Z,938.7
2022-10-26T09:54:19.265Z,938.4
2022-10-26T09:59:31.335Z,938.6
2022-10-26T10:04:43.529Z,938.5
2022-10-26T10:09:59.650Z,938.5
2022-10-26T10:15:12.324Z,937.7
2022-10-26T10:20:23.934Z,938
2022-10-26T10:25:36.482Z,937.9
2022-10-26T10:30:51.105Z,937.6
2022-10-26T10:36:06.983Z,937.6
2022-10-26T10:46:41.746Z,937.7
2022-10-26T10:57:26.842Z,937.7
2022-10-26T11:02:36.953Z,937.5
2022-10-26T11:07:54.254Z,937.5
2022-10-26T11:23:50.641Z,937.5
2022-10-26T11:34:33.781Z,937.7
2022-10-26T11:39:42.834Z,937.5
2022-10-26T11:55:35.408Z,937.6
2022-10-26T12:11:29.686Z,937.8
2022-10-26T12:22:04.325Z,937.9
2022-10-26T12:27:18.880Z,937.9
2022-10-26T12:43:15.374Z,938
2022-10-26T12:48:40.334Z,938
2022-10-26T13:04:28.276Z,938
2022-10-26T13:09:45.149Z,938
2022-10-26T13:14:58.196Z,937.9
2022-10-26T13:20:10.354Z,937.8
2022-10-26T13:25:23.226Z,938
2022-10-26T13:36:00.185Z,938
2022-10-26T13:46:38.015Z,938
2022-10-26T13:51:54.375Z,938
2022-10-26T13:57:11.451Z,938
2022-10-26T14:07:43.738Z,938.1
2022-10-26T14:23:53.437Z,938.1
2022-10-26T14:29:09.915Z,938.1
2022-10-26T14:34:21.594Z,938.3
2022-10-26T14:45:01.722Z,938.3
2022-10-26T14:50:17.994Z,938.3
2022-10-26T14:55:29.560Z,938.3
2022-10-26T15:11:36.705Z,938.3
2022-10-26T15:16:50.905Z,938.4
2022-10-26T15:21:56.628Z,938.4
2022-10-26T15:37:59.992Z,938.5
2022-10-26T15:53:54.724Z,938.6
2022-10-26T15:59:06.017Z,938.7
2022-10-26T16:04:21.748Z,938.7
2022-10-26T16:20:15.807Z,938.8
2022-10-26T16:31:00.758Z,938.9
2022-10-26T16:36:07.592Z,938.9
2022-10-26T16:41:22.982Z,938.9
2022-10-26T16:46:35.382Z,939.2
2022-10-26T17:02:31.688Z,939.5
2022-10-26T17:07:45.802Z,939.5
2022-10-26T17:13:27.892Z,939.5
2022-10-26T17:23:54.416Z,940
2022-10-26T17:29:05.312Z,940.2
2022-10-26T17:34:21.400Z,940.2
2022-10-26T17:44:56.533Z,940.4
2022-10-26T17:50:07.951Z,940.6
2022-10-26T18:00:38.656Z,941
2022-10-26T18:05:51.564Z,941.1
2022-10-26T18:11:06.618Z,941.1
2022-10-26T18:16:21.731Z,941.1
2022-10-26T18:21:38.300Z,941.1
2022-10-26T18:26:50.579Z,940.9
2022-10-26T18:37:28.231Z,940.9
2022-10-26T18:42:38.885Z,941
2022-10-26T18:47:58.604Z,941
2022-10-26T18:53:09.242Z,941.3
2022-10-26T18:58:21.529Z,941.4
2022-10-26T19:03:33.465Z,941.1
2022-10-26T19:08:45.679Z,941.2
2022-10-26T19:13:57.874Z,941.4
2022-10-26T19:19:09.743Z,941.9
2022-10-26T19:24:21.964Z,942
2022-10-26T19:29:32.245Z,942.4
2022-10-26T19:45:25.940Z,942.1
2022-10-26T19:50:36.999Z,941.9
2022-10-26T19:55:51.293Z,941.9
2022-10-26T20:11:47.110Z,942.6
2022-10-26T20:16:59.712Z,942.9
2022-10-26T20:22:11.299Z,943.1
2022-10-26T20:27:23.645Z,942.9
2022-10-26T20:32:35.347Z,942.8
2022-10-26T20:37:48.527Z,942.6
2022-10-26T20:48:19.165Z,942.3
2022-10-26T20:53:30.139Z,942.7
2022-10-26T20:58:45.985Z,942.7
2022-10-26T21:14:44.531Z,942.9
2022-10-26T21:19:51.432Z,943
2022-10-26T21:25:07.416Z,943
2022-10-26T21:35:46.025Z,943
2022-10-26T21:41:06.654Z,943.5
2022-10-26T21:46:07.993Z,943.7
2022-10-26T21:51:20.186Z,943.3
2022-10-26T21:56:31.798Z,942.9
2022-10-26T22:01:47.119Z,942.9
2022-10-26T22:12:18.365Z,943.7
2022-10-26T22:17:30.471Z,943.9
2022-10-26T22:22:42.091Z,943.8
2022-10-26T22:33:15.629Z,943.3
2022-10-26T22:38:25.817Z,943.2
2022-10-26T22:43:37.795Z,942.9
2022-10-26T22:54:11.171Z,943.4
2022-10-26T22:59:28.675Z,943.4
2022-10-26T23:04:41.605Z,943
2022-10-26T23:09:53.330Z,942.7
2022-10-26T23:20:31.114Z,942.7
2022-10-26T23:31:09.346Z,943.3
2022-10-26T23:36:16.631Z,943.7
2022-10-26T23:41:29.419Z,944
2022-10-26T23:51:59.550Z,943.5
2022-10-26T23:57:11.987Z,943.1
